sensor_id;sensor_type;location;lat;lon;timestamp;pressure;altitude;pressure_sealevel;temperature;humidity
64675;BME280;51090;51.512;11.332;2022-09-29T00:01:57;97844.53;;;9.16;100.00
64675;BME280;51090;51.512;11.332;2022-09-29T00:04:22;97836.22;;;9.13;100.00
64675;BME280;51090;51.512;11.332;2022-09-29T00:06:48;97837.84;;;9.14;100.00
64675;BME280;51090;51.512;11.332;2022-09-29T00:09:14;97841.25;;;9.21;100.00
64675;BME280;51090;51.512;11.332;2022-09-29T00:11:40;97847.34;;;9.22;100.00
64675;BME280;51090;51.512;11.332;2022-09-29T00:14:06;97842.66;;;9.24;100.00
64675;BME280;51090;51.512;11.332;2022-09-29T00:16:32;97840.59;;;9.26;100.00
64675;BME280;51090;51.512;11.332;2022-09-29T00:18:58;97844.88;;;9.27;100.00
64675;BME280;51090;51.512;11.332;2022-09-29T00:21:24;97848.38;;;9.21;100.00
64675;BME280;51090;51.512;11.332;2022-09-29T00:23:50;97846.59;;;9.14;100.00
64675;BME280;51090;51.512;11.332;2022-09-29T00:26:22;97847.44;;;9.08;100.00
64675;BME280;51090;51.512;11.332;2022-09-29T00:28:54;97857.81;;;9.10;100.00
64675;BME280;51090;51.512;11.332;2022-09-29T00:31:22;97855.97;;;9.10;100.00
64675;BME280;51090;51.512;11.332;2022-09-29T00:33:48;97849.31;;;9.01;100.00
64675;BME280;51090;51.512;11.332;2022-09-29T00:36:17;97853.78;;;9.07;100.00
64675;BME280;51090;51.512;11.332;2022-09-29T00:38:45;97832.09;;;8.92;100.00
64675;BME280;51090;51.512;11.332;2022-09-29T00:41:19;97851.97;;;9.01;100.00
64675;BME280;51090;51.512;11.332;2022-09-29T00:43:57;97848.50;;;9.01;100.00
64675;BME280;51090;51.512;11.332;2022-09-29T00:49:46;97843.13;;;8.82;100.00
64675;BME280;51090;51.512;11.332;2022-09-29T00:52:36;97835.91;;;8.71;100.00
64675;BME280;51090;51.512;11.332;2022-09-29T00:55:15;97837.53;;;8.65;100.00
64675;BME280;51090;51.512;11.332;2022-09-29T00:58:31;97843.56;;;8.79;100.00
64675;BME280;51090;51.512;11.332;2022-09-29T01:00:58;97844.00;;;8.76;100.00
64675;BME280;51090;51.512;11.332;2022-09-29T01:03:30;97839.25;;;8.85;100.00
64675;BME280;51090;51.512;11.332;2022-09-29T01:06:02;97842.25;;;8.95;100.00
64675;BME280;51090;51.512;11.332;2022-09-29T01:08:46;97847.94;;;9.24;100.00
64675;BME280;51090;51.512;11.332;2022-09-29T01:11:19;97840.75;;;9.06;100.00
64675;BME280;51090;51.512;11.332;2022-09-29T01:13:46;97841.72;;;9.11;100.00
64675;BME280;51090;51.512;11.332;2022-09-29T01:16:13;97844.94;;;9.20;100.00
64675;BME280;51090;51.512;11.332;2022-09-29T01:18:39;97845.66;;;9.27;100.00
64675;BME280;51090;51.512;11.332;2022-09-29T01:30:25;97839.09;;;9.36;100.00
64675;BME280;51090;51.512;11.332;2022-09-29T01:41:21;97848.88;;;9.36;100.00
64675;BME280;51090;51.512;11.332;2022-09-29T01:43:58;97850.13;;;9.33;100.00
64675;BME280;51090;51.512;11.332;2022-09-29T01:46:35;97856.66;;;9.31;100.00
64675;BME280;51090;51.512;11.332;2022-09-29T01:49:03;97852.63;;;9.22;100.00
64675;BME280;51090;51.512;11.332;2022-09-29T01:51:52;97857.91;;;9.22;100.00
64675;BME280;51090;51.512;11.332;2022-09-29T01:55:11;97848.31;;;9.02;100.00
64675;BME280;51090;51.512;11.332;2022-09-29T01:57:36;97854.41;;;9.03;100.00
64675;BME280;51090;51.512;11.332;2022-09-29T02:00:13;97848.97;;;8.91;100.00
64675;BME280;51090;51.512;11.332;2022-09-29T02:05:24;97851.00;;;8.57;100.00
64675;BME280;51090;51.512;11.332;2022-09-29T02:07:54;97847.38;;;8.52;100.00
64675;BME280;51090;51.512;11.332;2022-09-29T02:10:27;97849.41;;;8.49;100.00
64675;BME280;51090;51.512;11.332;2022-09-29T02:12:55;97837.84;;;8.37;100.00
64675;BME280;51090;51.512;11.332;2022-09-29T02:15:27;97852.66;;;8.52;100.00
64675;BME280;51090;51.512;11.332;2022-09-29T02:18:00;97851.41;;;8.61;100.00
64675;BME280;51090;51.512;11.332;2022-09-29T02:20:27;97847.13;;;8.60;100.00
64675;BME280;51090;51.512;11.332;2022-09-29T02:22:55;97854.69;;;8.49;100.00
64675;BME280;51090;51.512;11.332;2022-09-29T02:25:21;97857.16;;;8.31;100.00
64675;BME280;51090;51.512;11.332;2022-09-29T02:27:48;97855.16;;;8.26;100.00
64675;BME280;51090;51.512;11.332;2022-09-29T02:30:16;97850.91;;;8.19;100.00
64675;BME280;51090;51.512;11.332;2022-09-29T02:32:44;97862.88;;;8.21;100.00
64675;BME280;51090;51.512;11.332;2022-09-29T02:35:12;97862.25;;;8.33;100.00
64675;BME280;51090;51.512;11.332;2022-09-29T02:38:12;97870.34;;;8.44;100.00
64675;BME280;51090;51.512;11.332;2022-09-29T02:52:53;97877.66;;;8.49;100.00
64675;BME280;51090;51.512;11.332;2022-09-29T02:58:46;97893.88;;;8.53;100.00
64675;BME280;51090;51.512;11.332;2022-09-29T03:01:14;97879.09;;;8.32;100.00
64675;BME280;51090;51.512;11.332;2022-09-29T03:03:41;97894.13;;;8.38;100.00
64675;BME280;51090;51.512;11.332;2022-09-29T03:06:09;97882.78;;;8.31;100.00
64675;BME280;51090;51.512;11.332;2022-09-29T03:08:35;97886.22;;;8.24;100.00
64675;BME280;51090;51.512;11.332;2022-09-29T03:11:02;97882.81;;;8.17;100.00
64675;BME280;51090;51.512;11.332;2022-09-29T03:13:28;97896.44;;;8.07;100.00
64675;BME280;51090;51.512;11.332;2022-09-29T03:15:53;97888.75;;;7.93;100.00
64675;BME280;51090;51.512;11.332;2022-09-29T03:18:19;97884.31;;;7.87;100.00
64675;BME280;51090;51.512;11.332;2022-09-29T03:20:48;97889.38;;;7.81;100.00
64675;BME280;51090;51.512;11.332;2022-09-29T03:23:13;97883.50;;;7.79;100.00
64675;BME280;51090;51.512;11.332;2022-09-29T03:25:39;97886.31;;;7.84;100.00
64675;BME280;51090;51.512;11.332;2022-09-29T03:28:06;97890.38;;;7.87;100.00
64675;BME280;51090;51.512;11.332;2022-09-29T03:30:32;97897.88;;;7.90;100.00
64675;BME280;51090;51.512;11.332;2022-09-29T03:32:58;97894.81;;;7.93;100.00
64675;BME280;51090;51.512;11.332;2022-09-29T03:35:24;97892.19;;;7.93;100.00
64675;BME280;51090;51.512;11.332;2022-09-29T03:37:50;97901.75;;;7.94;100.00
64675;BME280;51090;51.512;11.332;2022-09-29T03:40:16;97894.22;;;7.91;100.00
64675;BME280;51090;51.512;11.332;2022-09-29T03:42:45;97898.66;;;8.04;100.00
64675;BME280;51090;51.512;11.332;2022-09-29T03:45:12;97893.22;;;7.85;100.00
64675;BME280;51090;51.512;11.332;2022-09-29T03:47:38;97896.06;;;7.84;100.00
64675;BME280;51090;51.512;11.332;2022-09-29T03:50:04;97894.44;;;7.83;100.00
64675;BME280;51090;51.512;11.332;2022-09-29T03:52:30;97902.34;;;7.83;100.00
64675;BME280;51090;51.512;11.332;2022-09-29T03:54:55;97901.34;;;7.77;100.00
64675;BME280;51090;51.512;11.332;2022-09-29T03:57:21;97904.41;;;7.74;100.00
64675;BME280;51090;51.512;11.332;2022-09-29T03:59:47;97905.22;;;7.75;100.00
64675;BME280;51090;51.512;11.332;2022-09-29T04:02:13;97912.72;;;7.84;100.00
64675;BME280;51090;51.512;11.332;2022-09-29T04:04:38;97905.41;;;7.87;100.00
64675;BME280;51090;51.512;11.332;2022-09-29T04:07:04;97911.28;;;7.89;100.00
64675;BME280;51090;51.512;11.332;2022-09-29T04:09:30;97909.84;;;7.93;100.00
64675;BME280;51090;51.512;11.332;2022-09-29T04:11:56;97900.91;;;7.94;100.00
64675;BME280;51090;51.512;11.332;2022-09-29T04:14:21;97908.03;;;8.00;100.00
64675;BME280;51090;51.512;11.332;2022-09-29T04:16:47;97909.88;;;7.99;100.00
64675;BME280;51090;51.512;11.332;2022-09-29T04:19:13;97921.22;;;8.00;100.00
64675;BME280;51090;51.512;11.332;2022-09-29T04:21:38;97920.00;;;7.96;100.00
64675;BME280;51090;51.512;11.332;2022-09-29T04:24:04;97911.69;;;7.85;100.00
64675;BME280;51090;51.512;11.332;2022-09-29T04:26:30;97913.94;;;7.75;100.00
64675;BME280;51090;51.512;11.332;2022-09-29T04:28:55;97915.56;;;7.70;100.00
64675;BME280;51090;51.512;11.332;2022-09-29T04:31:21;97908.88;;;7.60;100.00
64675;BME280;51090;51.512;11.332;2022-09-29T04:33:47;97919.22;;;7.55;100.00
64675;BME280;51090;51.512;11.332;2022-09-29T04:36:12;97908.47;;;7.44;100.00
64675;BME280;51090;51.512;11.332;2022-09-29T04:38:38;97920.84;;;7.43;100.00
64675;BME280;51090;51.512;11.332;2022-09-29T04:41:04;97913.31;;;7.33;100.00
64675;BME280;51090;51.512;11.332;2022-09-29T04:43:30;97916.75;;;7.34;100.00
64675;BME280;51090;51.512;11.332;2022-09-29T04:46:04;97922.06;;;7.40;100.00
64675;BME280;51090;51.512;11.332;2022-09-29T04:48:30;97931.38;;;7.36;100.00
64675;BME280;51090;51.512;11.332;2022-09-29T04:50:56;97934.22;;;7.41;100.00
64675;BME280;51090;51.512;11.332;2022-09-29T04:53:22;97928.53;;;7.45;100.00
64675;BME280;51090;51.512;11.332;2022-09-29T04:55:48;97933.63;;;7.46;100.00
64675;BME280;51090;51.512;11.332;2022-09-29T04:58:14;97930.78;;;7.48;100.00
64675;BME280;51090;51.512;11.332;2022-09-29T05:00:40;97926.91;;;7.44;100.00
64675;BME280;51090;51.512;11.332;2022-09-29T05:03:05;97936.66;;;7.50;100.00
64675;BME280;51090;51.512;11.332;2022-09-29T05:05:31;97920.63;;;7.45;100.00
64675;BME280;51090;51.512;11.332;2022-09-29T05:07:57;97930.16;;;7.52;100.00
64675;BME280;51090;51.512;11.332;2022-09-29T05:10:25;97936.88;;;7.61;100.00
64675;BME280;51090;51.512;11.332;2022-09-29T05:12:51;97940.94;;;7.51;100.00
64675;BME280;51090;51.512;11.332;2022-09-29T05:15:18;97927.94;;;7.43;100.00
64675;BME280;51090;51.512;11.332;2022-09-29T05:17:44;97946.41;;;7.43;100.00
64675;BME280;51090;51.512;11.332;2022-09-29T05:20:11;97950.25;;;7.40;100.00
64675;BME280;51090;51.512;11.332;2022-09-29T05:22:37;97936.41;;;7.18;100.00
64675;BME280;51090;51.512;11.332;2022-09-29T05:25:04;97936.81;;;7.15;100.00
64675;BME280;51090;51.512;11.332;2022-09-29T05:27:30;97931.53;;;7.02;100.00
64675;BME280;51090;51.512;11.332;2022-09-29T05:29:55;97935.94;;;7.01;100.00
64675;BME280;51090;51.512;11.332;2022-09-29T05:32:21;97938.00;;;7.06;100.00
64675;BME280;51090;51.512;11.332;2022-09-29T05:34:47;97945.31;;;7.10;100.00
64675;BME280;51090;51.512;11.332;2022-09-29T05:37:13;97955.88;;;7.24;100.00
64675;BME280;51090;51.512;11.332;2022-09-29T05:39:39;97956.75;;;7.37;100.00
64675;BME280;51090;51.512;11.332;2022-09-29T05:42:10;97952.09;;;7.53;100.00
64675;BME280;51090;51.512;11.332;2022-09-29T05:44:36;97949.06;;;7.56;100.00
64675;BME280;51090;51.512;11.332;2022-09-29T05:47:02;97942.97;;;7.62;100.00
64675;BME280;51090;51.512;11.332;2022-09-29T05:49:28;97961.03;;;7.72;100.00
64675;BME280;51090;51.512;11.332;2022-09-29T05:51:56;97962.25;;;7.82;100.00
64675;BME280;51090;51.512;11.332;2022-09-29T05:54:22;97963.88;;;7.90;100.00
64675;BME280;51090;51.512;11.332;2022-09-29T05:56:48;97966.09;;;7.93;100.00
64675;BME280;51090;51.512;11.332;2022-09-29T05:59:14;97969.75;;;7.99;100.00
64675;BME280;51090;51.512;11.332;2022-09-29T06:01:40;97965.69;;;8.03;100.00
64675;BME280;51090;51.512;11.332;2022-09-29T06:04:06;97970.13;;;8.09;100.00
64675;BME280;51090;51.512;11.332;2022-09-29T06:06:31;97968.72;;;8.13;100.00
64675;BME280;51090;51.512;11.332;2022-09-29T06:08:58;97972.97;;;8.21;100.00
64675;BME280;51090;51.512;11.332;2022-09-29T06:11:27;97977.25;;;8.28;100.00
64675;BME280;51090;51.512;11.332;2022-09-29T06:13:54;97967.91;;;8.26;100.00
64675;BME280;51090;51.512;11.332;2022-09-29T06:16:24;97969.13;;;8.23;100.00
64675;BME280;51090;51.512;11.332;2022-09-29T06:18:50;97974.81;;;8.20;100.00
64675;BME280;51090;51.512;11.332;2022-09-29T06:21:20;97976.44;;;8.21;100.00
64675;BME280;51090;51.512;11.332;2022-09-29T06:23:46;97975.00;;;8.19;100.00
64675;BME280;51090;51.512;11.332;2022-09-29T06:26:14;97965.91;;;8.15;100.00
64675;BME280;51090;51.512;11.332;2022-09-29T06:28:41;97969.56;;;8.07;100.00
64675;BME280;51090;51.512;11.332;2022-09-29T06:31:11;97961.22;;;8.10;100.00
64675;BME280;51090;51.512;11.332;2022-09-29T06:33:37;97963.25;;;7.95;100.00
64675;BME280;51090;51.512;11.332;2022-09-29T06:36:12;97959.59;;;7.96;100.00
64675;BME280;51090;51.512;11.332;2022-09-29T06:38:59;97972.19;;;7.94;100.00
64675;BME280;51090;51.512;11.332;2022-09-29T06:41:24;97969.13;;;8.03;100.00
64675;BME280;51090;51.512;11.332;2022-09-29T06:43:51;97961.63;;;8.14;100.00
64675;BME280;51090;51.512;11.332;2022-09-29T06:46:17;97967.47;;;8.29;100.00
64675;BME280;51090;51.512;11.332;2022-09-29T06:48:44;97963.19;;;8.35;100.00
64675;BME280;51090;51.512;11.332;2022-09-29T06:51:10;97966.66;;;8.42;100.00
64675;BME280;51090;51.512;11.332;2022-09-29T06:53:36;97969.09;;;8.50;100.00
64675;BME280;51090;51.512;11.332;2022-09-29T06:56:02;97957.28;;;8.53;100.00
64675;BME280;51090;51.512;11.332;2022-09-29T06:58:28;97960.31;;;8.63;100.00
64675;BME280;51090;51.512;11.332;2022-09-29T07:00:54;97967.41;;;8.69;100.00
64675;BME280;51090;51.512;11.332;2022-09-29T07:03:24;97964.53;;;8.77;100.00
64675;BME280;51090;51.512;11.332;2022-09-29T07:05:49;97967.56;;;8.87;100.00
64675;BME280;51090;51.512;11.332;2022-09-29T07:08:15;97969.94;;;9.02;100.00
64675;BME280;51090;51.512;11.332;2022-09-29T07:10:41;97965.38;;;9.16;100.00
64675;BME280;51090;51.512;11.332;2022-09-29T07:13:06;97961.25;;;9.27;100.00
64675;BME280;51090;51.512;11.332;2022-09-29T07:15:34;97952.41;;;9.40;100.00
64675;BME280;51090;51.512;11.332;2022-09-29T07:18:00;97955.81;;;9.53;100.00
64675;BME280;51090;51.512;11.332;2022-09-29T07:20:28;97970.38;;;9.63;100.00
64675;BME280;51090;51.512;11.332;2022-09-29T07:22:54;97960.41;;;9.65;100.00
64675;BME280;51090;51.512;11.332;2022-09-29T07:25:20;97968.88;;;9.73;100.00
64675;BME280;51090;51.512;11.332;2022-09-29T07:27:47;97968.41;;;9.83;100.00
64675;BME280;51090;51.512;11.332;2022-09-29T07:30:13;97972.47;;;10.11;100.00
64675;BME280;51090;51.512;11.332;2022-09-29T07:32:39;97967.16;;;10.36;100.00
64675;BME280;51090;51.512;11.332;2022-09-29T07:35:06;97976.16;;;10.72;100.00
64675;BME280;51090;51.512;11.332;2022-09-29T07:37:32;97978.84;;;11.02;100.00
64675;BME280;51090;51.512;11.332;2022-09-29T07:39:58;97984.84;;;11.27;100.00
64675;BME280;51090;51.512;11.332;2022-09-29T07:42:24;97983.44;;;11.43;100.00
64675;BME280;51090;51.512;11.332;2022-09-29T07:44:49;97983.56;;;11.60;100.00
64675;BME280;51090;51.512;11.332;2022-09-29T07:47:15;97983.75;;;11.77;100.00
64675;BME280;51090;51.512;11.332;2022-09-29T07:49:41;97990.03;;;11.94;100.00
64675;BME280;51090;51.512;11.332;2022-09-29T07:52:07;97986.59;;;12.06;100.00
64675;BME280;51090;51.512;11.332;2022-09-29T07:54:33;97988.81;;;12.20;100.00
64675;BME280;51090;51.512;11.332;2022-09-29T07:56:59;97992.50;;;12.31;100.00
64675;BME280;51090;51.512;11.332;2022-09-29T07:59:28;97994.00;;;12.39;100.00
64675;BME280;51090;51.512;11.332;2022-09-29T08:01:55;98003.69;;;12.57;100.00
64675;BME280;51090;51.512;11.332;2022-09-29T08:04:21;98007.28;;;12.62;100.00
64675;BME280;51090;51.512;11.332;2022-09-29T08:06:46;98005.88;;;12.72;100.00
64675;BME280;51090;51.512;11.332;2022-09-29T08:09:13;98012.34;;;12.88;100.00
64675;BME280;51090;51.512;11.332;2022-09-29T08:11:41;98009.31;;;12.84;100.00
64675;BME280;51090;51.512;11.332;2022-09-29T08:14:09;98014.19;;;12.75;100.00
64675;BME280;51090;51.512;11.332;2022-09-29T08:16:36;98010.16;;;12.73;100.00
64675;BME280;51090;51.512;11.332;2022-09-29T08:19:04;98012.47;;;12.69;100.00
64675;BME280;51090;51.512;11.332;2022-09-29T08:21:30;98016.28;;;12.73;100.00
64675;BME280;51090;51.512;11.332;2022-09-29T08:24:04;98019.38;;;12.94;100.00
64675;BME280;51090;51.512;11.332;2022-09-29T08:26:34;98021.06;;;13.12;100.00
64675;BME280;51090;51.512;11.332;2022-09-29T08:29:01;98021.28;;;13.34;100.00
64675;BME280;51090;51.512;11.332;2022-09-29T08:31:27;98025.53;;;13.35;100.00
64675;BME280;51090;51.512;11.332;2022-09-29T08:33:56;98016.38;;;13.31;100.00
64675;BME280;51090;51.512;11.332;2022-09-29T08:36:26;98022.19;;;13.27;100.00
64675;BME280;51090;51.512;11.332;2022-09-29T08:38:53;98011.69;;;13.21;100.00
64675;BME280;51090;51.512;11.332;2022-09-29T08:41:51;98019.06;;;13.31;100.00
64675;BME280;51090;51.512;11.332;2022-09-29T08:47:12;98035.28;;;13.29;100.00
64675;BME280;51090;51.512;11.332;2022-09-29T08:49:51;98036.06;;;13.41;100.00
64675;BME280;51090;51.512;11.332;2022-09-29T08:52:26;98036.00;;;13.53;100.00
64675;BME280;51090;51.512;11.332;2022-09-29T08:55:29;98040.22;;;13.66;100.00
64675;BME280;51090;51.512;11.332;2022-09-29T08:58:00;98038.81;;;13.75;100.00
64675;BME280;51090;51.512;11.332;2022-09-29T09:18:16;98053.81;;;14.99;100.00
64675;BME280;51090;51.512;11.332;2022-09-29T09:24:01;98060.31;;;15.31;100.00
64675;BME280;51090;51.512;11.332;2022-09-29T09:26:38;98056.69;;;15.37;100.00
64675;BME280;51090;51.512;11.332;2022-09-29T09:32:19;98067.88;;;15.83;100.00
64675;BME280;51090;51.512;11.332;2022-09-29T09:34:55;98065.91;;;16.00;100.00
64675;BME280;51090;51.512;11.332;2022-09-29T09:37:41;98060.19;;;16.19;100.00
64675;BME280;51090;51.512;11.332;2022-09-29T09:40:28;98062.16;;;16.33;100.00
64675;BME280;51090;51.512;11.332;2022-09-29T09:43:04;98074.31;;;16.46;100.00
64675;BME280;51090;51.512;11.332;2022-09-29T09:48:43;98059.72;;;16.64;100.00
64675;BME280;51090;51.512;11.332;2022-09-29T09:51:42;98073.00;;;16.86;100.00
64675;BME280;51090;51.512;11.332;2022-09-29T09:54:26;98064.78;;;16.98;100.00
64675;BME280;51090;51.512;11.332;2022-09-29T10:00:15;98065.84;;;16.97;94.27
64675;BME280;51090;51.512;11.332;2022-09-29T10:02:49;98069.09;;;16.67;96.35
64675;BME280;51090;51.512;11.332;2022-09-29T10:05:19;98074.53;;;16.40;96.12
64675;BME280;51090;51.512;11.332;2022-09-29T10:07:46;98066.47;;;16.02;100.00
64675;BME280;51090;51.512;11.332;2022-09-29T10:10:20;98068.56;;;16.00;100.00
64675;BME280;51090;51.512;11.332;2022-09-29T10:13:04;98079.81;;;16.02;100.00
64675;BME280;51090;51.512;11.332;2022-09-29T10:16:31;98076.72;;;16.16;100.00
64675;BME280;51090;51.512;11.332;2022-09-29T10:18:58;98071.97;;;16.23;100.00
64675;BME280;51090;51.512;11.332;2022-09-29T10:21:38;98075.31;;;16.35;100.00
64675;BME280;51090;51.512;11.332;2022-09-29T10:24:19;98082.25;;;16.36;100.00
64675;BME280;51090;51.512;11.332;2022-09-29T10:26:48;98071.28;;;16.32;100.00
64675;BME280;51090;51.512;11.332;2022-09-29T10:34:34;98074.00;;;16.10;100.00
64675;BME280;51090;51.512;11.332;2022-09-29T10:37:04;98077.66;;;15.99;100.00
64675;BME280;51090;51.512;11.332;2022-09-29T10:39:44;98079.53;;;15.99;100.00
64675;BME280;51090;51.512;11.332;2022-09-29T10:42:25;98077.16;;;16.02;100.00
64675;BME280;51090;51.512;11.332;2022-09-29T10:45:15;98089.25;;;16.10;100.00
64675;BME280;51090;51.512;11.332;2022-09-29T10:48:07;98075.69;;;16.17;100.00
64675;BME280;51090;51.512;11.332;2022-09-29T10:50:50;98087.66;;;16.41;100.00
64675;BME280;51090;51.512;11.332;2022-09-29T10:53:36;98073.81;;;16.49;100.00
64675;BME280;51090;51.512;11.332;2022-09-29T10:56:19;98086.72;;;16.58;100.00
64675;BME280;51090;51.512;11.332;2022-09-29T10:58:59;98081.59;;;16.56;100.00
64675;BME280;51090;51.512;11.332;2022-09-29T11:01:28;98078.34;;;16.49;100.00
64675;BME280;51090;51.512;11.332;2022-09-29T11:03:59;98078.63;;;16.47;100.00
64675;BME280;51090;51.512;11.332;2022-09-29T11:06:36;98084.00;;;16.52;100.00
64675;BME280;51090;51.512;11.332;2022-09-29T11:17:05;98077.00;;;16.14;100.00
64675;BME280;51090;51.512;11.332;2022-09-29T11:19:44;98083.63;;;16.06;100.00
64675;BME280;51090;51.512;11.332;2022-09-29T11:26:24;98090.53;;;16.02;100.00
64675;BME280;51090;51.512;11.332;2022-09-29T11:37:45;98085.94;;;15.98;100.00
64675;BME280;51090;51.512;11.332;2022-09-29T11:48:50;98089.88;;;16.17;100.00
64675;BME280;51090;51.512;11.332;2022-09-29T11:54:21;98087.22;;;16.22;100.00
64675;BME280;51090;51.512;11.332;2022-09-29T11:57:01;98085.34;;;16.23;100.00
64675;BME280;51090;51.512;11.332;2022-09-29T12:05:20;98082.81;;;16.38;99.58
64675;BME280;51090;51.512;11.332;2022-09-29T12:08:18;98086.81;;;16.36;98.12
64675;BME280;51090;51.512;11.332;2022-09-29T12:11:01;98073.38;;;16.30;100.00
64675;BME280;51090;51.512;11.332;2022-09-29T12:16:43;98080.88;;;16.66;99.97
64675;BME280;51090;51.512;11.332;2022-09-29T12:19:15;98076.56;;;16.60;94.45
64675;BME280;51090;51.512;11.332;2022-09-29T12:21:52;98083.28;;;16.62;97.65
64675;BME280;51090;51.512;11.332;2022-09-29T12:24:46;98081.47;;;16.73;94.17
64675;BME280;51090;51.512;11.332;2022-09-29T12:27:35;98088.25;;;16.81;96.94
64675;BME280;51090;51.512;11.332;2022-09-29T12:30:28;98086.88;;;16.78;92.02
64675;BME280;51090;51.512;11.332;2022-09-29T12:39:43;98094.25;;;16.98;92.86
64675;BME280;51090;51.512;11.332;2022-09-29T12:48:04;98089.47;;;16.68;91.27
64675;BME280;51090;51.512;11.332;2022-09-29T12:53:22;98088.63;;;16.62;88.75
64675;BME280;51090;51.512;11.332;2022-09-29T12:56:15;98087.84;;;16.67;97.35
64675;BME280;51090;51.512;11.332;2022-09-29T12:58:56;98094.81;;;16.68;92.81
64675;BME280;51090;51.512;11.332;2022-09-29T13:01:28;98093.72;;;16.64;90.75
64675;BME280;51090;51.512;11.332;2022-09-29T13:10:41;98089.06;;;16.86;90.02
64675;BME280;51090;51.512;11.332;2022-09-29T13:27:41;98090.47;;;17.57;88.05
64675;BME280;51090;51.512;11.332;2022-09-29T13:30:20;98099.09;;;17.74;76.82
64675;BME280;51090;51.512;11.332;2022-09-29T13:33:12;98092.97;;;17.79;81.75
64675;BME280;51090;51.512;11.332;2022-09-29T13:35:47;98100.53;;;17.97;76.13
64675;BME280;51090;51.512;11.332;2022-09-29T13:38:24;98079.34;;;17.96;71.40
64675;BME280;51090;51.512;11.332;2022-09-29T13:54:31;98101.84;;;17.79;69.71
64675;BME280;51090;51.512;11.332;2022-09-29T13:57:20;98091.31;;;17.62;65.37
64675;BME280;51090;51.512;11.332;2022-09-29T14:02:45;98090.66;;;17.30;70.67
64675;BME280;51090;51.512;11.332;2022-09-29T14:08:14;98094.06;;;17.15;65.73
64675;BME280;51090;51.512;11.332;2022-09-29T14:10:49;98097.75;;;17.04;67.41
64675;BME280;51090;51.512;11.332;2022-09-29T14:13:33;98098.81;;;17.03;69.52
64675;BME280;51090;51.512;11.332;2022-09-29T14:18:50;98098.34;;;17.21;73.65
64675;BME280;51090;51.512;11.332;2022-09-29T14:21:51;98104.28;;;17.28;71.60
64675;BME280;51090;51.512;11.332;2022-09-29T14:32:54;98093.97;;;16.62;67.92
64675;BME280;51090;51.512;11.332;2022-09-29T14:35:41;98100.06;;;16.52;69.54
64675;BME280;51090;51.512;11.332;2022-09-29T14:40:36;98112.75;;;16.35;73.59
64675;BME280;51090;51.512;11.332;2022-09-29T14:43:14;98134.44;;;16.39;73.48
64675;BME280;51090;51.512;11.332;2022-09-29T14:46:11;98120.44;;;16.26;75.27
64675;BME280;51090;51.512;11.332;2022-09-29T14:49:41;98132.75;;;16.27;75.55
64675;BME280;51090;51.512;11.332;2022-09-29T14:58:36;98131.94;;;16.59;77.87
64675;BME280;51090;51.512;11.332;2022-09-29T15:01:31;98128.03;;;16.72;78.25
64675;BME280;51090;51.512;11.332;2022-09-29T15:04:13;98140.38;;;16.73;77.60
64675;BME280;51090;51.512;11.332;2022-09-29T15:06:50;98138.56;;;16.51;78.67
64675;BME280;51090;51.512;11.332;2022-09-29T15:09:23;98131.53;;;16.40;80.74
64675;BME280;51090;51.512;11.332;2022-09-29T15:11:50;98145.75;;;16.46;80.76
64675;BME280;51090;51.512;11.332;2022-09-29T15:20:12;98156.13;;;16.37;81.70
64675;BME280;51090;51.512;11.332;2022-09-29T15:23:32;98152.94;;;16.40;83.04
64675;BME280;51090;51.512;11.332;2022-09-29T15:26:02;98152.09;;;16.35;85.76
64675;BME280;51090;51.512;11.332;2022-09-29T15:28:35;98152.94;;;16.40;83.12
64675;BME280;51090;51.512;11.332;2022-09-29T15:31:07;98153.72;;;16.41;83.67
64675;BME280;51090;51.512;11.332;2022-09-29T15:33:42;98155.81;;;16.33;84.51
64675;BME280;51090;51.512;11.332;2022-09-29T15:36:21;98168.19;;;16.40;84.47
64675;BME280;51090;51.512;11.332;2022-09-29T15:38:52;98168.38;;;16.33;83.17
64675;BME280;51090;51.512;11.332;2022-09-29T15:41:20;98168.22;;;16.18;83.46
64675;BME280;51090;51.512;11.332;2022-09-29T15:43:56;98171.34;;;16.09;82.44
64675;BME280;51090;51.512;11.332;2022-09-29T15:46:39;98169.53;;;16.15;82.28
64675;BME280;51090;51.512;11.332;2022-09-29T15:49:25;98171.00;;;16.01;83.45
64675;BME280;51090;51.512;11.332;2022-09-29T15:52:02;98181.81;;;15.89;85.79
64675;BME280;51090;51.512;11.332;2022-09-29T15:57:00;98183.66;;;15.66;90.04
64675;BME280;51090;51.512;11.332;2022-09-29T15:59:50;98184.16;;;15.63;91.94
64675;BME280;51090;51.512;11.332;2022-09-29T16:02:40;98184.88;;;15.59;93.97
64675;BME280;51090;51.512;11.332;2022-09-29T16:05:12;98184.59;;;15.55;95.44
64675;BME280;51090;51.512;11.332;2022-09-29T16:08:20;98189.94;;;15.55;99.25
64675;BME280;51090;51.512;11.332;2022-09-29T16:10:56;98201.06;;;15.47;97.97
64675;BME280;51090;51.512;11.332;2022-09-29T16:13:29;98200.91;;;15.37;98.41
64675;BME280;51090;51.512;11.332;2022-09-29T16:16:04;98211.84;;;15.35;100.00
64675;BME280;51090;51.512;11.332;2022-09-29T16:18:47;98214.63;;;15.23;100.00
64675;BME280;51090;51.512;11.332;2022-09-29T16:21:18;98212.81;;;15.12;100.00
64675;BME280;51090;51.512;11.332;2022-09-29T16:29:04;98235.47;;;14.76;100.00
64675;BME280;51090;51.512;11.332;2022-09-29T16:31:31;98241.69;;;14.65;100.00
64675;BME280;51090;51.512;11.332;2022-09-29T16:33:59;98243.94;;;14.56;100.00
64675;BME280;51090;51.512;11.332;2022-09-29T16:36:28;98244.63;;;14.51;100.00
64675;BME280;51090;51.512;11.332;2022-09-29T16:38:59;98247.66;;;14.43;100.00
64675;BME280;51090;51.512;11.332;2022-09-29T16:41:36;98252.53;;;14.46;100.00
64675;BME280;51090;51.512;11.332;2022-09-29T16:51:48;98261.16;;;13.96;100.00